Currently 79°F in San Jacinto, California, USA
79°F
89°F / 57°F
5 mph SW
0.00"
Sunday, June 24, 2018 7:19 PM PDT

San Jacinto, California Weather Summary
Last 36 Hours

Temperature Winds Hourly Humidity Dewpoint
Time Report Norm Report Norm Max Gusts Precip. Rpt. Norm Rpt. Norm Pressure
1Sun 07:19 PM  79.0°F  84°F  5 mph SW  4 mph  11 mph  0.00"  40%  31%  52°F  49°F  29.93"
Sun 07:00 PM  80.4°F  85°F  7 mph SW  4 mph  16 mph  0.00"  39%  29%  52°F  48°F  29.93"
Sun 06:00 PM  83.3°F  89°F  9 mph SW  5 mph  14 mph  0.00"  36%  25%  53°F  47°F  29.91"
Sun 05:00 PM  84.7°F  91°F  6 mph SW  6 mph  16 mph  0.00"  35%  23%  53°F  46°F  29.93"
Sun 04:00 PM  87.4°F  93°F  8 mph SW  6 mph  13 mph  0.00"  31%  19%  52°F  44°F  29.94"
2Sun 03:00 PM  89.2°F  93°F  8 mph SW  5 mph  11 mph  0.00"  27%  18%  50°F  43°F  29.95"
Sun 02:00 PM  87.4°F  93°F  6 mph S  5 mph  11 mph  0.00"  31%  19%  52°F  43°F  29.96"
Sun 01:00 PM  84.2°F  91°F  3 mph W  3 mph  8 mph  0.00"  32%  21%  50°F  44°F  29.98"
Sun 12:00 PM  78.8°F  89°F  3 mph W  2 mph  8 mph  0.00"  42%  24%  53°F  46°F  29.99"
Sun 11:00 AM  73.6°F  85°F  2 mph SW  1 mph  7 mph  0.00"  55%  29%  56°F  48°F  29.99"
Sun 10:00 AM  67.6°F  80°F  3 mph W  1 mph  6 mph  0.00"  68%  37%  56°F  50°F  29.99"
Sun 09:00 AM  63.1°F  74°F  2 mph W  calm  6 mph  0.00"  78%  46%  56°F  51°F  29.99"
Sun 08:00 AM  59.7°F  69°F  1 mph W  calm  3 mph  0.00"  85%  53%  55°F  51°F  29.98"
Sun 07:00 AM  58.8°F  65°F  1 mph W  calm  3 mph  0.00"  88%  60%  55°F  50°F  29.96"
Sun 06:00 AM  58.6°F  62°F  calm  calm  3 mph  0.00"  89%  65%  55°F  50°F  29.95"
Sun 05:00 AM  58.5°F  63°F  calm  calm  none  0.00"  89%  64%  55°F  50°F  29.94"
Sun 04:00 AM  56.8°F  64°F  calm  calm  none  0.00"  89%  63%  53°F  51°F  29.93"
3Sun 03:34 AM  56.7°F  64°F  calm  calm  none  ----  87%  63%  53°F  51°F  29.92"
Sun 03:00 AM  57.9°F  65°F  calm  calm  2 mph  0.00"  88%  61%  54°F  51°F  29.92"
Sun 02:00 AM  58.6°F  67°F  calm  calm  3 mph  0.00"  87%  61%  55°F  52°F  29.91"
Sun 01:00 AM  59.4°F  68°F  1 mph S  calm  3 mph  0.00"  85%  58%  55°F  53°F  29.92"
Sun 12:00 AM  60.4°F  70°F  1 mph S  1 mph  3 mph  0.00"  82%  55%  55°F  53°F  29.92"
Sat 11:00 PM  61.9°F  73°F  1 mph S  calm  6 mph  0.00"  79%  51%  55°F  53°F  29.92"
Sat 10:00 PM  63.3°F  75°F  2 mph S  1 mph  8 mph  0.00"  76%  46%  55°F  52°F  29.91"
Sat 09:00 PM  65.7°F  77°F  4 mph SW  1 mph  11 mph  0.00"  72%  41%  56°F  51°F  29.88"
Sat 08:00 PM  69.6°F  81°F  5 mph SW  2 mph  11 mph  0.00"  63%  35%  56°F  49°F  29.86"
Sat 07:00 PM  73.6°F  86°F  7 mph SW  4 mph  14 mph  0.00"  56%  28%  56°F  48°F  29.85"
Sat 06:00 PM  78.4°F  89°F  7 mph SW  5 mph  14 mph  0.00"  48%  24%  56°F  47°F  29.84"
Sat 05:00 PM  81.1°F  91°F  6 mph SW  6 mph  13 mph  0.00"  45%  22%  57°F  46°F  29.85"
Sat 04:00 PM  82.8°F  93°F  6 mph S  6 mph  15 mph  0.00"  43%  19%  57°F  43°F  29.85"
Sat 03:00 PM  82.6°F  94°F  8 mph S  5 mph  17 mph  0.00"  43%  18%  57°F  42°F  29.86"
Sat 02:00 PM  82.2°F  93°F  9 mph S  4 mph  15 mph  0.00"  43%  18%  57°F  42°F  29.87"
Sat 01:00 PM  83.1°F  91°F  8 mph SW  3 mph  13 mph  0.00"  42%  20%  57°F  44°F  29.87"
Sat 12:00 PM  82.0°F  88°F  7 mph SW  2 mph  11 mph  0.00"  41%  23%  55°F  45°F  29.87"
Sat 11:00 AM  81.1°F  85°F  3 mph SW  2 mph  7 mph  0.00"  43%  28%  56°F  47°F  29.87"
Sat 10:00 AM  75.7°F  80°F  1 mph W  1 mph  6 mph  0.00"  54%  36%  57°F  49°F  29.87"
Sat 09:00 AM  68.4°F  74°F  1 mph SW  calm  3 mph  0.00"  77%  45%  61°F  51°F  29.87"
Sat 08:00 AM  62.2°F  69°F  1 mph S  calm  3 mph  0.00"  92%  52%  60°F  50°F  29.86"

  1. Current weather data. No green row appears if the current weather data is also the high or low for the current day.
  2. High temperature for the current day.
  3. Low temperature for the current day.

The San Jacinto, California weather pages are a service of WeatherCurrents. San Jacinto is located in the heart of the San Jacinto Valley, near Hemet, the Soboba Casino, and at the foot of the San Jacinto Mountains.
Copyright ©Sun Jun 24 19:20:51 PDT 2018  WeatherCurrents. All rights reserved. - Submit questions and comments - Privacy Policy

This page automatically refreshes every 10 minutes.